sensor_id;sensor_type;location;lat;lon;timestamp;pressure;altitude;pressure_sealevel;temperature;humidity
73952;BME280;62304;47.662;18.324;2022-09-09T00:05:51;100082.66;;;18.24;80.87
73952;BME280;62304;47.662;18.324;2022-09-09T00:09:13;100079.44;;;18.26;80.80
73952;BME280;62304;47.662;18.324;2022-09-09T00:12:31;100080.34;;;18.19;80.26
73952;BME280;62304;47.662;18.324;2022-09-09T00:15:54;100078.47;;;18.13;80.62
73952;BME280;62304;47.662;18.324;2022-09-09T00:22:20;100053.34;;;18.06;80.58
73952;BME280;62304;47.662;18.324;2022-09-09T00:25:45;100051.03;;;17.97;80.79
73952;BME280;62304;47.662;18.324;2022-09-09T00:29:14;100061.37;;;18.04;80.52
73952;BME280;62304;47.662;18.324;2022-09-09T00:32:24;100057.41;;;18.01;80.47
73952;BME280;62304;47.662;18.324;2022-09-09T00:35:33;100060.81;;;17.89;80.74
73952;BME280;62304;47.662;18.324;2022-09-09T00:38:48;100062.53;;;17.83;80.94
73952;BME280;62304;47.662;18.324;2022-09-09T00:42:11;100068.72;;;17.71;81.34
73952;BME280;62304;47.662;18.324;2022-09-09T00:45:51;100070.34;;;17.95;80.88
73952;BME280;62304;47.662;18.324;2022-09-09T00:49:19;100079.62;;;17.66;82.69
73952;BME280;62304;47.662;18.324;2022-09-09T01:09:56;100091.84;;;17.52;82.79
73952;BME280;62304;47.662;18.324;2022-09-09T01:13:03;100083.91;;;17.47;83.04
73952;BME280;62304;47.662;18.324;2022-09-09T01:16:10;100082.75;;;17.45;83.24
73952;BME280;62304;47.662;18.324;2022-09-09T01:19:24;100085.19;;;17.43;83.10
73952;BME280;62304;47.662;18.324;2022-09-09T01:22:35;100098.22;;;17.56;82.62
73952;BME280;62304;47.662;18.324;2022-09-09T01:29:17;100106.09;;;17.38;82.80
73952;BME280;62304;47.662;18.324;2022-09-09T01:32:57;100112.13;;;17.33;83.47
73952;BME280;62304;47.662;18.324;2022-09-09T01:36:20;100104.87;;;17.39;82.94
73952;BME280;62304;47.662;18.324;2022-09-09T01:39:26;100099.34;;;17.32;83.53
73952;BME280;62304;47.662;18.324;2022-09-09T01:42:30;100104.25;;;17.25;83.37
73952;BME280;62304;47.662;18.324;2022-09-09T01:45:34;100107.88;;;17.22;83.58
73952;BME280;62304;47.662;18.324;2022-09-09T01:48:37;100109.03;;;17.24;83.45
73952;BME280;62304;47.662;18.324;2022-09-09T01:51:41;100113.91;;;17.20;83.36
73952;BME280;62304;47.662;18.324;2022-09-09T01:54:46;100119.78;;;17.29;83.19
73952;BME280;62304;47.662;18.324;2022-09-09T01:58:05;100120.28;;;17.54;82.20
73952;BME280;62304;47.662;18.324;2022-09-09T02:04:41;100113.22;;;17.43;81.71
73952;BME280;62304;47.662;18.324;2022-09-09T02:07:48;100118.31;;;17.21;82.43
73952;BME280;62304;47.662;18.324;2022-09-09T02:10:59;100116.28;;;17.22;82.69
73952;BME280;62304;47.662;18.324;2022-09-09T02:14:22;100128.81;;;17.14;83.05
73952;BME280;62304;47.662;18.324;2022-09-09T02:17:29;100119.31;;;17.04;82.94
73952;BME280;62304;47.662;18.324;2022-09-09T02:20:36;100109.59;;;16.79;83.92
73952;BME280;62304;47.662;18.324;2022-09-09T02:23:42;100116.72;;;16.87;83.61
73952;BME280;62304;47.662;18.324;2022-09-09T02:26:48;100109.50;;;16.89;83.28
73952;BME280;62304;47.662;18.324;2022-09-09T02:29:56;100125.94;;;16.87;83.49
73952;BME280;62304;47.662;18.324;2022-09-09T02:33:04;100127.47;;;16.55;84.86
73952;BME280;62304;47.662;18.324;2022-09-09T02:36:12;100127.44;;;16.58;84.98
73952;BME280;62304;47.662;18.324;2022-09-09T02:39:19;100126.38;;;16.45;85.21
73952;BME280;62304;47.662;18.324;2022-09-09T02:42:24;100126.69;;;16.54;84.92
73952;BME280;62304;47.662;18.324;2022-09-09T02:45:36;100116.62;;;16.57;84.09
73952;BME280;62304;47.662;18.324;2022-09-09T02:48:59;100120.56;;;16.66;83.90
73952;BME280;62304;47.662;18.324;2022-09-09T02:52:07;100126.34;;;16.49;84.60
73952;BME280;62304;47.662;18.324;2022-09-09T02:55:26;100122.41;;;16.43;84.41
73952;BME280;62304;47.662;18.324;2022-09-09T02:58:33;100129.63;;;16.37;84.97
73952;BME280;62304;47.662;18.324;2022-09-09T03:01:36;100113.97;;;16.46;84.72
73952;BME280;62304;47.662;18.324;2022-09-09T03:04:40;100117.06;;;16.55;84.37
73952;BME280;62304;47.662;18.324;2022-09-09T03:07:45;100128.53;;;16.68;83.85
73952;BME280;62304;47.662;18.324;2022-09-09T03:10:50;100120.25;;;16.57;83.87
73952;BME280;62304;47.662;18.324;2022-09-09T03:13:53;100124.63;;;16.58;83.92
73952;BME280;62304;47.662;18.324;2022-09-09T03:16:59;100123.72;;;16.24;84.98
73952;BME280;62304;47.662;18.324;2022-09-09T03:20:06;100124.09;;;16.26;85.13
73952;BME280;62304;47.662;18.324;2022-09-09T03:23:10;100122.06;;;16.30;85.07
73952;BME280;62304;47.662;18.324;2022-09-09T03:26:17;100114.44;;;16.34;84.71
73952;BME280;62304;47.662;18.324;2022-09-09T03:29:20;100112.38;;;16.45;84.16
73952;BME280;62304;47.662;18.324;2022-09-09T03:32:25;100113.56;;;16.48;83.86
73952;BME280;62304;47.662;18.324;2022-09-09T03:35:29;100112.41;;;16.42;83.80
73952;BME280;62304;47.662;18.324;2022-09-09T03:38:32;100119.63;;;16.39;83.85
73952;BME280;62304;47.662;18.324;2022-09-09T03:41:36;100116.41;;;16.37;84.49
73952;BME280;62304;47.662;18.324;2022-09-09T03:44:40;100112.44;;;16.35;84.14
73952;BME280;62304;47.662;18.324;2022-09-09T03:47:44;100124.13;;;16.23;84.39
73952;BME280;62304;47.662;18.324;2022-09-09T03:50:49;100130.97;;;16.18;84.30
73952;BME280;62304;47.662;18.324;2022-09-09T03:53:52;100130.66;;;16.09;84.73
73952;BME280;62304;47.662;18.324;2022-09-09T03:56:57;100140.72;;;16.00;85.55
73952;BME280;62304;47.662;18.324;2022-09-09T04:00:04;100137.91;;;16.03;85.38
73952;BME280;62304;47.662;18.324;2022-09-09T04:03:17;100139.91;;;16.03;85.78
73952;BME280;62304;47.662;18.324;2022-09-09T04:06:20;100127.03;;;16.12;85.37
73952;BME280;62304;47.662;18.324;2022-09-09T04:09:23;100136.59;;;16.18;84.99
73952;BME280;62304;47.662;18.324;2022-09-09T04:12:27;100134.59;;;16.15;85.25
73952;BME280;62304;47.662;18.324;2022-09-09T04:15:30;100135.06;;;16.10;85.21
73952;BME280;62304;47.662;18.324;2022-09-09T04:18:34;100135.78;;;16.21;84.84
73952;BME280;62304;47.662;18.324;2022-09-09T04:21:37;100138.94;;;16.23;84.74
73952;BME280;62304;47.662;18.324;2022-09-09T04:24:40;100146.97;;;16.18;84.41
73952;BME280;62304;47.662;18.324;2022-09-09T04:27:54;100157.41;;;16.14;84.79
73952;BME280;62304;47.662;18.324;2022-09-09T04:31:04;100154.97;;;16.19;84.81
73952;BME280;62304;47.662;18.324;2022-09-09T04:34:08;100156.63;;;16.10;85.17
73952;BME280;62304;47.662;18.324;2022-09-09T04:37:12;100163.00;;;16.14;85.12
73952;BME280;62304;47.662;18.324;2022-09-09T04:40:15;100167.44;;;16.11;85.51
73952;BME280;62304;47.662;18.324;2022-09-09T04:43:18;100159.47;;;16.06;85.41
73952;BME280;62304;47.662;18.324;2022-09-09T04:46:22;100160.28;;;16.03;85.67
73952;BME280;62304;47.662;18.324;2022-09-09T04:49:28;100165.97;;;15.93;86.11
73952;BME280;62304;47.662;18.324;2022-09-09T04:52:35;100173.53;;;15.92;86.33
73952;BME280;62304;47.662;18.324;2022-09-09T04:55:38;100168.81;;;15.82;86.51
73952;BME280;62304;47.662;18.324;2022-09-09T04:58:42;100172.50;;;15.72;86.78
73952;BME280;62304;47.662;18.324;2022-09-09T05:01:48;100176.16;;;15.62;87.25
73952;BME280;62304;47.662;18.324;2022-09-09T05:04:53;100172.94;;;15.64;88.10
73952;BME280;62304;47.662;18.324;2022-09-09T05:08:05;100182.09;;;15.68;88.10
73952;BME280;62304;47.662;18.324;2022-09-09T05:14:27;100168.94;;;15.65;88.65
73952;BME280;62304;47.662;18.324;2022-09-09T05:17:30;100172.84;;;15.78;88.21
73952;BME280;62304;47.662;18.324;2022-09-09T05:20:36;100182.78;;;15.82;88.10
73952;BME280;62304;47.662;18.324;2022-09-09T05:23:38;100170.44;;;15.83;88.13
73952;BME280;62304;47.662;18.324;2022-09-09T05:26:42;100168.44;;;15.80;88.06
73952;BME280;62304;47.662;18.324;2022-09-09T05:29:46;100168.44;;;15.80;87.96
73952;BME280;62304;47.662;18.324;2022-09-09T05:32:49;100170.81;;;15.85;87.58
73952;BME280;62304;47.662;18.324;2022-09-09T05:36:00;100160.38;;;15.93;87.45
73952;BME280;62304;47.662;18.324;2022-09-09T05:39:04;100175.16;;;15.90;87.70
73952;BME280;62304;47.662;18.324;2022-09-09T05:42:07;100183.94;;;15.95;87.42
73952;BME280;62304;47.662;18.324;2022-09-09T05:45:10;100183.94;;;15.95;87.89
73952;BME280;62304;47.662;18.324;2022-09-09T05:48:16;100174.69;;;15.98;87.80
73952;BME280;62304;47.662;18.324;2022-09-09T05:51:23;100167.47;;;16.08;87.38
73952;BME280;62304;47.662;18.324;2022-09-09T05:54:28;100168.12;;;16.22;86.84
73952;BME280;62304;47.662;18.324;2022-09-09T05:57:31;100168.94;;;16.19;87.19
73952;BME280;62304;47.662;18.324;2022-09-09T06:00:34;100181.28;;;16.25;86.30
73952;BME280;62304;47.662;18.324;2022-09-09T06:03:39;100169.28;;;16.28;86.48
73952;BME280;62304;47.662;18.324;2022-09-09T06:06:42;100171.59;;;16.40;86.07
73952;BME280;62304;47.662;18.324;2022-09-09T06:09:46;100170.72;;;16.50;85.71
73952;BME280;62304;47.662;18.324;2022-09-09T06:12:52;100173.88;;;16.52;85.70
73952;BME280;62304;47.662;18.324;2022-09-09T06:15:57;100175.03;;;16.58;85.26
73952;BME280;62304;47.662;18.324;2022-09-09T06:19:02;100179.41;;;16.63;84.92
73952;BME280;62304;47.662;18.324;2022-09-09T06:22:06;100172.19;;;16.62;85.09
73952;BME280;62304;47.662;18.324;2022-09-09T06:25:10;100169.34;;;16.69;85.94
73952;BME280;62304;47.662;18.324;2022-09-09T06:28:15;100173.59;;;16.80;85.34
73952;BME280;62304;47.662;18.324;2022-09-09T06:31:21;100160.00;;;16.82;84.82
73952;BME280;62304;47.662;18.324;2022-09-09T06:34:31;100151.16;;;16.84;84.29
73952;BME280;62304;47.662;18.324;2022-09-09T06:37:34;100150.84;;;16.78;84.44
73952;BME280;62304;47.662;18.324;2022-09-09T06:40:37;100160.62;;;16.97;84.27
73952;BME280;62304;47.662;18.324;2022-09-09T06:43:40;100159.94;;;17.19;83.18
73952;BME280;62304;47.662;18.324;2022-09-09T06:46:45;100169.84;;;17.31;82.78
73952;BME280;62304;47.662;18.324;2022-09-09T06:49:52;100168.84;;;17.74;83.37
73952;BME280;62304;47.662;18.324;2022-09-09T06:52:56;100161.94;;;17.82;81.89
73952;BME280;62304;47.662;18.324;2022-09-09T06:56:23;100161.31;;;18.21;80.86
73952;BME280;62304;47.662;18.324;2022-09-09T06:59:26;100165.72;;;18.91;79.54
73952;BME280;62304;47.662;18.324;2022-09-09T07:02:30;100158.78;;;20.08;76.29
73952;BME280;62304;47.662;18.324;2022-09-09T07:05:32;100160.72;;;20.75;72.44
73952;BME280;62304;47.662;18.324;2022-09-09T07:08:35;100163.19;;;21.18;70.09
73952;BME280;62304;47.662;18.324;2022-09-09T07:11:41;100153.75;;;21.90;66.27
73952;BME280;62304;47.662;18.324;2022-09-09T07:14:46;100178.38;;;22.52;64.87
73952;BME280;62304;47.662;18.324;2022-09-09T07:17:49;100175.00;;;23.13;63.12
73952;BME280;62304;47.662;18.324;2022-09-09T07:20:53;100179.66;;;23.41;60.98
73952;BME280;62304;47.662;18.324;2022-09-09T07:23:58;100167.91;;;23.73;60.37
73952;BME280;62304;47.662;18.324;2022-09-09T07:27:01;100172.19;;;23.99;60.65
73952;BME280;62304;47.662;18.324;2022-09-09T07:30:06;100161.34;;;24.55;57.83
73952;BME280;62304;47.662;18.324;2022-09-09T07:33:09;100170.75;;;25.00;57.26
73952;BME280;62304;47.662;18.324;2022-09-09T07:36:14;100178.12;;;24.89;54.41
73952;BME280;62304;47.662;18.324;2022-09-09T07:39:16;100186.75;;;24.19;58.98
73952;BME280;62304;47.662;18.324;2022-09-09T07:42:20;100195.81;;;25.02;54.96
73952;BME280;62304;47.662;18.324;2022-09-09T07:45:24;100185.72;;;25.64;54.44
73952;BME280;62304;47.662;18.324;2022-09-09T07:48:27;100186.28;;;25.95;53.84
73952;BME280;62304;47.662;18.324;2022-09-09T07:51:33;100177.06;;;26.41;52.48
73952;BME280;62304;47.662;18.324;2022-09-09T07:54:37;100177.88;;;27.12;50.71
73952;BME280;62304;47.662;18.324;2022-09-09T07:57:40;100176.72;;;26.81;51.81
73952;BME280;62304;47.662;18.324;2022-09-09T08:00:43;100175.19;;;26.94;51.22
73952;BME280;62304;47.662;18.324;2022-09-09T08:03:53;100172.47;;;26.76;50.42
73952;BME280;62304;47.662;18.324;2022-09-09T08:06:59;100171.06;;;27.19;49.70
73952;BME280;62304;47.662;18.324;2022-09-09T08:10:03;100159.03;;;27.67;49.52
73952;BME280;62304;47.662;18.324;2022-09-09T08:13:09;100163.56;;;27.59;48.85
73952;BME280;62304;47.662;18.324;2022-09-09T08:16:26;100158.56;;;27.83;49.04
73952;BME280;62304;47.662;18.324;2022-09-09T08:19:30;100158.84;;;27.71;48.23
73952;BME280;62304;47.662;18.324;2022-09-09T08:22:35;100161.22;;;28.01;46.49
73952;BME280;62304;47.662;18.324;2022-09-09T08:25:40;100156.75;;;28.44;46.87
73952;BME280;62304;47.662;18.324;2022-09-09T08:28:43;100155.69;;;28.12;46.58
73952;BME280;62304;47.662;18.324;2022-09-09T08:31:51;100160.34;;;28.10;46.66
73952;BME280;62304;47.662;18.324;2022-09-09T08:34:57;100150.94;;;28.38;45.81
73952;BME280;62304;47.662;18.324;2022-09-09T08:38:03;100165.00;;;28.42;45.80
73952;BME280;62304;47.662;18.324;2022-09-09T08:51:50;100156.91;;;28.95;42.00
73952;BME280;62304;47.662;18.324;2022-09-09T08:58:26;100149.22;;;29.01;41.04
73952;BME280;62304;47.662;18.324;2022-09-09T09:01:50;100152.87;;;29.01;42.33
73952;BME280;62304;47.662;18.324;2022-09-09T09:08:26;100139.69;;;29.29;40.03
73952;BME280;62304;47.662;18.324;2022-09-09T09:11:50;100142.75;;;29.71;40.61
73952;BME280;62304;47.662;18.324;2022-09-09T09:14:54;100141.03;;;29.85;40.17
73952;BME280;62304;47.662;18.324;2022-09-09T09:17:59;100128.16;;;29.44;40.74
73952;BME280;62304;47.662;18.324;2022-09-09T09:21:08;100119.81;;;29.97;38.93
73952;BME280;62304;47.662;18.324;2022-09-09T09:27:36;100120.50;;;30.54;37.75
73952;BME280;62304;47.662;18.324;2022-09-09T09:33:57;100119.22;;;29.11;37.83
73952;BME280;62304;47.662;18.324;2022-09-09T09:37:02;100106.00;;;30.21;35.25
73952;BME280;62304;47.662;18.324;2022-09-09T09:40:20;100103.47;;;30.76;36.48
73952;BME280;62304;47.662;18.324;2022-09-09T09:43:26;100111.81;;;31.82;34.52
73952;BME280;62304;47.662;18.324;2022-09-09T09:46:32;100108.94;;;31.54;33.04
73952;BME280;62304;47.662;18.324;2022-09-09T09:49:37;100116.97;;;31.45;33.62
73952;BME280;62304;47.662;18.324;2022-09-09T09:52:41;100119.38;;;31.63;33.76
73952;BME280;62304;47.662;18.324;2022-09-09T09:56:12;100115.75;;;32.12;32.76
73952;BME280;62304;47.662;18.324;2022-09-09T10:02:42;100112.56;;;31.66;33.29
73952;BME280;62304;47.662;18.324;2022-09-09T10:05:47;100109.44;;;31.69;31.74
73952;BME280;62304;47.662;18.324;2022-09-09T10:08:52;100119.06;;;32.49;31.95
73952;BME280;62304;47.662;18.324;2022-09-09T10:15:43;100114.03;;;31.17;32.12
73952;BME280;62304;47.662;18.324;2022-09-09T10:19:15;100104.53;;;31.81;30.80
73952;BME280;62304;47.662;18.324;2022-09-09T10:22:26;100108.94;;;32.20;30.39
73952;BME280;62304;47.662;18.324;2022-09-09T10:33:08;100113.09;;;32.41;30.06
73952;BME280;62304;47.662;18.324;2022-09-09T10:36:22;100100.84;;;31.91;30.59
73952;BME280;62304;47.662;18.324;2022-09-09T10:39:37;100101.34;;;31.35;32.00
73952;BME280;62304;47.662;18.324;2022-09-09T10:42:44;100102.34;;;31.32;31.87
73952;BME280;62304;47.662;18.324;2022-09-09T10:49:21;100103.00;;;30.94;31.04
73952;BME280;62304;47.662;18.324;2022-09-09T10:55:57;100102.63;;;31.28;31.16
73952;BME280;62304;47.662;18.324;2022-09-09T10:59:16;100094.81;;;31.62;30.83
73952;BME280;62304;47.662;18.324;2022-09-09T11:02:30;100086.78;;;31.99;29.98
73952;BME280;62304;47.662;18.324;2022-09-09T11:05:41;100088.94;;;33.40;27.89
73952;BME280;62304;47.662;18.324;2022-09-09T11:08:45;100087.28;;;33.50;28.31
73952;BME280;62304;47.662;18.324;2022-09-09T11:11:59;100079.09;;;33.19;27.89
73952;BME280;62304;47.662;18.324;2022-09-09T11:15:17;100078.28;;;33.24;29.17
73952;BME280;62304;47.662;18.324;2022-09-09T11:18:23;100081.69;;;33.28;28.33
73952;BME280;62304;47.662;18.324;2022-09-09T11:21:33;100076.44;;;34.50;27.29
73952;BME280;62304;47.662;18.324;2022-09-09T11:24:43;100078.94;;;34.11;26.92
73952;BME280;62304;47.662;18.324;2022-09-09T11:36:02;100068.28;;;33.36;27.76
73952;BME280;62304;47.662;18.324;2022-09-09T11:38:46;100069.25;;;33.44;27.06
73952;BME280;62304;47.662;18.324;2022-09-09T11:42:06;100064.03;;;33.83;26.66
73952;BME280;62304;47.662;18.324;2022-09-09T11:45:29;100063.16;;;33.58;26.93
73952;BME280;62304;47.662;18.324;2022-09-09T11:48:37;100061.37;;;33.85;26.57
73952;BME280;62304;47.662;18.324;2022-09-09T11:51:41;100062.22;;;34.33;25.52
73952;BME280;62304;47.662;18.324;2022-09-09T11:54:47;100067.19;;;34.57;25.17
73952;BME280;62304;47.662;18.324;2022-09-09T11:58:00;100058.41;;;34.20;25.21
73952;BME280;62304;47.662;18.324;2022-09-09T12:01:25;100054.25;;;32.70;27.02
73952;BME280;62304;47.662;18.324;2022-09-09T12:04:44;100058.09;;;31.93;29.01
73952;BME280;62304;47.662;18.324;2022-09-09T12:07:58;100060.34;;;31.18;30.61
73952;BME280;62304;47.662;18.324;2022-09-09T12:11:02;100050.37;;;30.33;35.10
73952;BME280;62304;47.662;18.324;2022-09-09T12:14:37;100046.78;;;29.65;33.33
73952;BME280;62304;47.662;18.324;2022-09-09T12:17:48;100040.25;;;29.08;33.48
73952;BME280;62304;47.662;18.324;2022-09-09T12:24:43;100025.75;;;31.60;29.80
73952;BME280;62304;47.662;18.324;2022-09-09T12:28:04;100025.22;;;31.23;29.44
73952;BME280;62304;47.662;18.324;2022-09-09T12:35:20;100024.69;;;31.35;29.96
73952;BME280;62304;47.662;18.324;2022-09-09T12:38:32;100019.41;;;32.38;28.81
73952;BME280;62304;47.662;18.324;2022-09-09T12:41:36;100011.34;;;32.31;28.78
73952;BME280;62304;47.662;18.324;2022-09-09T12:45:00;100012.38;;;32.17;29.22
73952;BME280;62304;47.662;18.324;2022-09-09T12:48:08;100007.72;;;32.03;29.65
73952;BME280;62304;47.662;18.324;2022-09-09T12:51:29;100011.81;;;30.81;30.63
73952;BME280;62304;47.662;18.324;2022-09-09T12:54:35;100002.78;;;30.41;31.01
73952;BME280;62304;47.662;18.324;2022-09-09T12:57:39;100000.09;;;30.79;30.62
73952;BME280;62304;47.662;18.324;2022-09-09T13:00:49;99978.41;;;30.56;30.97
73952;BME280;62304;47.662;18.324;2022-09-09T13:03:55;99988.03;;;29.64;31.72
73952;BME280;62304;47.662;18.324;2022-09-09T13:07:07;99984.00;;;28.94;32.41
73952;BME280;62304;47.662;18.324;2022-09-09T13:10:23;99976.22;;;29.20;33.32
73952;BME280;62304;47.662;18.324;2022-09-09T13:13:40;99979.50;;;29.07;35.12
73952;BME280;62304;47.662;18.324;2022-09-09T13:16:55;99978.13;;;29.03;35.20
73952;BME280;62304;47.662;18.324;2022-09-09T13:19:58;99983.94;;;28.88;34.92
73952;BME280;62304;47.662;18.324;2022-09-09T13:23:01;99982.09;;;28.40;35.03
73952;BME280;62304;47.662;18.324;2022-09-09T13:26:18;99989.34;;;28.21;34.46
73952;BME280;62304;47.662;18.324;2022-09-09T13:29:24;99982.78;;;28.15;35.13
73952;BME280;62304;47.662;18.324;2022-09-09T13:32:28;99976.94;;;27.84;35.73
73952;BME280;62304;47.662;18.324;2022-09-09T13:35:31;99973.50;;;27.65;37.55
73952;BME280;62304;47.662;18.324;2022-09-09T13:38:53;99974.72;;;27.93;36.20
73952;BME280;62304;47.662;18.324;2022-09-09T13:41:57;99968.09;;;27.67;36.35
73952;BME280;62304;47.662;18.324;2022-09-09T13:45:00;99963.84;;;27.77;38.25
73952;BME280;62304;47.662;18.324;2022-09-09T13:48:10;99955.41;;;27.34;37.97
73952;BME280;62304;47.662;18.324;2022-09-09T13:51:49;99945.00;;;27.02;36.82
73952;BME280;62304;47.662;18.324;2022-09-09T13:54:53;99938.03;;;27.17;38.26
73952;BME280;62304;47.662;18.324;2022-09-09T13:58:01;99943.00;;;27.86;35.79
73952;BME280;62304;47.662;18.324;2022-09-09T14:01:05;99946.00;;;27.97;35.04
73952;BME280;62304;47.662;18.324;2022-09-09T14:04:08;99939.81;;;28.64;34.13
73952;BME280;62304;47.662;18.324;2022-09-09T14:07:16;99925.75;;;29.11;32.82
73952;BME280;62304;47.662;18.324;2022-09-09T14:10:20;99926.28;;;28.84;31.37
73952;BME280;62304;47.662;18.324;2022-09-09T14:13:23;99930.06;;;28.76;32.21
73952;BME280;62304;47.662;18.324;2022-09-09T14:16:27;99909.75;;;29.25;32.35
73952;BME280;62304;47.662;18.324;2022-09-09T14:19:30;99910.44;;;29.45;32.50
73952;BME280;62304;47.662;18.324;2022-09-09T14:22:33;99910.31;;;29.29;32.63
73952;BME280;62304;47.662;18.324;2022-09-09T14:25:38;99909.06;;;28.99;33.13
73952;BME280;62304;47.662;18.324;2022-09-09T14:28:44;99903.94;;;28.83;33.06
73952;BME280;62304;47.662;18.324;2022-09-09T14:31:57;99905.91;;;28.71;32.87
73952;BME280;62304;47.662;18.324;2022-09-09T14:35:02;99900.19;;;28.46;32.86
73952;BME280;62304;47.662;18.324;2022-09-09T14:38:05;99896.84;;;28.27;33.08
73952;BME280;62304;47.662;18.324;2022-09-09T14:41:13;99907.16;;;28.19;32.96
73952;BME280;62304;47.662;18.324;2022-09-09T14:44:19;99905.84;;;28.00;33.75
73952;BME280;62304;47.662;18.324;2022-09-09T14:47:22;99909.75;;;27.63;34.65
73952;BME280;62304;47.662;18.324;2022-09-09T14:50:25;99918.81;;;27.47;35.50
73952;BME280;62304;47.662;18.324;2022-09-09T14:53:30;99913.69;;;27.16;37.17
73952;BME280;62304;47.662;18.324;2022-09-09T14:56:33;99908.97;;;26.70;35.96
73952;BME280;62304;47.662;18.324;2022-09-09T14:59:37;99915.91;;;26.40;37.31
73952;BME280;62304;47.662;18.324;2022-09-09T15:02:39;99917.94;;;26.25;38.06
73952;BME280;62304;47.662;18.324;2022-09-09T15:05:42;99922.06;;;26.00;39.05
73952;BME280;62304;47.662;18.324;2022-09-09T15:08:45;99929.81;;;26.00;40.77
73952;BME280;62304;47.662;18.324;2022-09-09T15:11:49;99918.91;;;25.75;39.60
73952;BME280;62304;47.662;18.324;2022-09-09T15:14:52;99910.88;;;25.73;40.03
73952;BME280;62304;47.662;18.324;2022-09-09T15:17:56;99907.41;;;25.69;40.37
73952;BME280;62304;47.662;18.324;2022-09-09T15:21:00;99900.63;;;25.67;39.83
73952;BME280;62304;47.662;18.324;2022-09-09T15:24:06;99898.78;;;25.64;42.14
73952;BME280;62304;47.662;18.324;2022-09-09T15:27:10;99900.06;;;25.63;42.11
73952;BME280;62304;47.662;18.324;2022-09-09T15:30:13;99911.47;;;25.54;42.37
73952;BME280;62304;47.662;18.324;2022-09-09T15:33:16;99913.69;;;25.50;43.50
73952;BME280;62304;47.662;18.324;2022-09-09T15:36:24;99909.37;;;25.22;43.40
73952;BME280;62304;47.662;18.324;2022-09-09T15:39:27;99907.56;;;25.10;43.63
73952;BME280;62304;47.662;18.324;2022-09-09T15:42:30;99914.34;;;25.03;45.20
73952;BME280;62304;47.662;18.324;2022-09-09T15:45:33;99920.09;;;24.85;44.87
73952;BME280;62304;47.662;18.324;2022-09-09T15:48:40;99922.31;;;24.81;45.87
73952;BME280;62304;47.662;18.324;2022-09-09T15:51:50;99924.84;;;24.70;45.58
73952;BME280;62304;47.662;18.324;2022-09-09T15:54:53;99915.28;;;24.59;44.96
73952;BME280;62304;47.662;18.324;2022-09-09T15:57:57;99923.44;;;24.57;47.11
73952;BME280;62304;47.662;18.324;2022-09-09T16:01:04;99917.91;;;24.53;45.34
73952;BME280;62304;47.662;18.324;2022-09-09T16:04:10;99924.41;;;24.54;44.98
73952;BME280;62304;47.662;18.324;2022-09-09T16:07:12;99920.00;;;24.53;45.45
73952;BME280;62304;47.662;18.324;2022-09-09T16:10:16;99914.94;;;24.48;46.34
73952;BME280;62304;47.662;18.324;2022-09-09T16:13:18;99909.13;;;24.42;46.51
73952;BME280;62304;47.662;18.324;2022-09-09T16:16:24;99906.91;;;24.37;46.34
73952;BME280;62304;47.662;18.324;2022-09-09T16:19:27;99904.56;;;24.36;45.85
73952;BME280;62304;47.662;18.324;2022-09-09T16:22:30;99916.84;;;24.33;46.27
73952;BME280;62304;47.662;18.324;2022-09-09T16:25:32;99909.78;;;24.28;47.36
73952;BME280;62304;47.662;18.324;2022-09-09T16:28:35;99920.97;;;24.14;46.20
73952;BME280;62304;47.662;18.324;2022-09-09T16:31:38;99926.63;;;24.05;45.83
73952;BME280;62304;47.662;18.324;2022-09-09T16:34:43;99923.47;;;23.94;46.18
73952;BME280;62304;47.662;18.324;2022-09-09T16:37:45;99922.50;;;23.88;46.37
73952;BME280;62304;47.662;18.324;2022-09-09T16:40:48;99924.53;;;23.87;47.23
73952;BME280;62304;47.662;18.324;2022-09-09T16:43:53;99922.47;;;23.79;46.79
73952;BME280;62304;47.662;18.324;2022-09-09T16:46:57;99930.63;;;23.59;46.77
73952;BME280;62304;47.662;18.324;2022-09-09T16:50:02;99931.06;;;23.48;46.85
73952;BME280;62304;47.662;18.324;2022-09-09T16:53:05;99926.34;;;23.45;47.05
73952;BME280;62304;47.662;18.324;2022-09-09T16:56:17;99924.72;;;23.35;47.51
73952;BME280;62304;47.662;18.324;2022-09-09T16:59:21;99932.87;;;23.24;48.69
73952;BME280;62304;47.662;18.324;2022-09-09T17:02:26;99925.75;;;23.20;49.41
73952;BME280;62304;47.662;18.324;2022-09-09T17:05:29;99932.03;;;23.15;50.03
73952;BME280;62304;47.662;18.324;2022-09-09T17:08:32;99928.53;;;23.11;49.97
73952;BME280;62304;47.662;18.324;2022-09-09T17:11:37;99919.84;;;23.05;50.61
73952;BME280;62304;47.662;18.324;2022-09-09T17:14:40;99940.41;;;22.97;51.75
73952;BME280;62304;47.662;18.324;2022-09-09T17:17:44;99938.16;;;22.92;52.41
73952;BME280;62304;47.662;18.324;2022-09-09T17:20:47;99942.09;;;22.85;52.28
73952;BME280;62304;47.662;18.324;2022-09-09T17:23:54;99950.63;;;22.73;52.98
73952;BME280;62304;47.662;18.324;2022-09-09T17:26:56;99955.00;;;22.65;53.77
73952;BME280;62304;47.662;18.324;2022-09-09T17:30:00;99953.22;;;22.58;54.51
73952;BME280;62304;47.662;18.324;2022-09-09T17:33:04;99949.47;;;22.61;54.59
73952;BME280;62304;47.662;18.324;2022-09-09T17:36:10;99953.47;;;22.73;54.52
73952;BME280;62304;47.662;18.324;2022-09-09T17:39:13;99951.75;;;22.75;55.36
73952;BME280;62304;47.662;18.324;2022-09-09T17:42:16;99943.03;;;22.61;56.05
73952;BME280;62304;47.662;18.324;2022-09-09T17:45:20;99951.38;;;22.64;56.20
73952;BME280;62304;47.662;18.324;2022-09-09T17:48:23;99959.41;;;22.66;56.54